sensor_id;sensor_type;location;lat;lon;timestamp;temperature;humidity
19385;DHT22;9828;54.122;17.974;2022-10-16T00:02:25;13.00;99.90
19385;DHT22;9828;54.122;17.974;2022-10-16T00:07:46;13.00;99.90
19385;DHT22;9828;54.122;17.974;2022-10-16T00:13:08;13.00;99.90
19385;DHT22;9828;54.122;17.974;2022-10-16T00:18:30;13.10;99.90
19385;DHT22;9828;54.122;17.974;2022-10-16T00:23:57;13.10;99.90
19385;DHT22;9828;54.122;17.974;2022-10-16T00:29:20;13.10;99.90
19385;DHT22;9828;54.122;17.974;2022-10-16T00:34:41;13.20;99.90
19385;DHT22;9828;54.122;17.974;2022-10-16T00:40:02;13.20;99.90
19385;DHT22;9828;54.122;17.974;2022-10-16T00:45:24;13.20;99.90
19385;DHT22;9828;54.122;17.974;2022-10-16T00:50:45;13.20;99.90
19385;DHT22;9828;54.122;17.974;2022-10-16T00:56:06;13.30;99.90
19385;DHT22;9828;54.122;17.974;2022-10-16T01:01:28;13.40;99.90
19385;DHT22;9828;54.122;17.974;2022-10-16T01:18:37;13.40;99.90
19385;DHT22;9828;54.122;17.974;2022-10-16T01:35:15;13.30;99.90
19385;DHT22;9828;54.122;17.974;2022-10-16T01:40:44;13.20;99.90
19385;DHT22;9828;54.122;17.974;2022-10-16T01:46:08;13.20;99.90
19385;DHT22;9828;54.122;17.974;2022-10-16T01:51:31;13.20;99.90
19385;DHT22;9828;54.122;17.974;2022-10-16T01:56:54;13.10;99.90
19385;DHT22;9828;54.122;17.974;2022-10-16T02:02:18;13.10;99.90
19385;DHT22;9828;54.122;17.974;2022-10-16T02:07:40;13.20;99.90
19385;DHT22;9828;54.122;17.974;2022-10-16T02:13:16;13.20;99.90
19385;DHT22;9828;54.122;17.974;2022-10-16T02:18:39;13.10;99.90
19385;DHT22;9828;54.122;17.974;2022-10-16T02:24:28;13.20;99.90
19385;DHT22;9828;54.122;17.974;2022-10-16T02:30:44;13.20;99.90
19385;DHT22;9828;54.122;17.974;2022-10-16T02:35:38;13.20;99.90
19385;DHT22;9828;54.122;17.974;2022-10-16T02:41:01;13.30;99.90
19385;DHT22;9828;54.122;17.974;2022-10-16T02:46:22;13.30;99.90
19385;DHT22;9828;54.122;17.974;2022-10-16T02:51:44;13.30;99.90
19385;DHT22;9828;54.122;17.974;2022-10-16T02:57:05;13.30;99.90
19385;DHT22;9828;54.122;17.974;2022-10-16T03:02:26;13.30;99.90
19385;DHT22;9828;54.122;17.974;2022-10-16T03:07:48;13.40;99.90
19385;DHT22;9828;54.122;17.974;2022-10-16T03:13:09;13.40;99.90
19385;DHT22;9828;54.122;17.974;2022-10-16T03:18:30;13.40;99.90
19385;DHT22;9828;54.122;17.974;2022-10-16T03:23:52;13.40;99.90
19385;DHT22;9828;54.122;17.974;2022-10-16T03:29:13;13.40;99.90
19385;DHT22;9828;54.122;17.974;2022-10-16T03:34:35;13.40;99.90
19385;DHT22;9828;54.122;17.974;2022-10-16T03:39:56;13.40;99.90
19385;DHT22;9828;54.122;17.974;2022-10-16T03:45:17;13.50;99.90
19385;DHT22;9828;54.122;17.974;2022-10-16T03:50:39;13.40;99.90
19385;DHT22;9828;54.122;17.974;2022-10-16T03:56:00;13.50;99.90
19385;DHT22;9828;54.122;17.974;2022-10-16T04:01:22;13.50;99.90
19385;DHT22;9828;54.122;17.974;2022-10-16T04:06:43;13.50;99.90
19385;DHT22;9828;54.122;17.974;2022-10-16T04:12:04;13.50;99.90
19385;DHT22;9828;54.122;17.974;2022-10-16T04:17:25;13.40;99.90
19385;DHT22;9828;54.122;17.974;2022-10-16T04:22:47;13.40;99.90
19385;DHT22;9828;54.122;17.974;2022-10-16T04:28:08;13.30;99.90
19385;DHT22;9828;54.122;17.974;2022-10-16T04:33:29;13.30;99.90
19385;DHT22;9828;54.122;17.974;2022-10-16T04:38:51;13.30;99.90
19385;DHT22;9828;54.122;17.974;2022-10-16T04:44:12;13.30;99.90
19385;DHT22;9828;54.122;17.974;2022-10-16T04:49:33;13.20;99.90
19385;DHT22;9828;54.122;17.974;2022-10-16T04:54:54;13.20;99.90
19385;DHT22;9828;54.122;17.974;2022-10-16T05:00:17;13.20;99.90
19385;DHT22;9828;54.122;17.974;2022-10-16T05:05:42;13.20;99.90
19385;DHT22;9828;54.122;17.974;2022-10-16T05:11:04;13.20;99.90
19385;DHT22;9828;54.122;17.974;2022-10-16T05:16:26;13.10;99.90
19385;DHT22;9828;54.122;17.974;2022-10-16T05:21:47;13.10;99.90
19385;DHT22;9828;54.122;17.974;2022-10-16T05:27:09;13.10;99.90
19385;DHT22;9828;54.122;17.974;2022-10-16T05:32:31;13.10;99.90
19385;DHT22;9828;54.122;17.974;2022-10-16T05:37:53;13.10;99.90
19385;DHT22;9828;54.122;17.974;2022-10-16T05:43:14;13.10;99.90
19385;DHT22;9828;54.122;17.974;2022-10-16T05:48:36;13.20;99.90
19385;DHT22;9828;54.122;17.974;2022-10-16T05:53:57;13.20;99.90
19385;DHT22;9828;54.122;17.974;2022-10-16T05:59:18;13.20;99.90
19385;DHT22;9828;54.122;17.974;2022-10-16T06:04:39;13.10;99.90
19385;DHT22;9828;54.122;17.974;2022-10-16T06:10:02;13.10;99.90
19385;DHT22;9828;54.122;17.974;2022-10-16T06:15:23;13.10;99.90
19385;DHT22;9828;54.122;17.974;2022-10-16T06:20:44;13.00;99.90
19385;DHT22;9828;54.122;17.974;2022-10-16T06:26:10;13.00;99.90
19385;DHT22;9828;54.122;17.974;2022-10-16T06:31:32;13.00;99.90
19385;DHT22;9828;54.122;17.974;2022-10-16T06:36:54;13.00;99.90
19385;DHT22;9828;54.122;17.974;2022-10-16T06:42:16;13.10;99.90
19385;DHT22;9828;54.122;17.974;2022-10-16T06:47:37;13.10;99.90
19385;DHT22;9828;54.122;17.974;2022-10-16T06:52:58;13.10;99.90
19385;DHT22;9828;54.122;17.974;2022-10-16T06:58:21;13.20;99.90
19385;DHT22;9828;54.122;17.974;2022-10-16T07:03:44;13.20;99.90
19385;DHT22;9828;54.122;17.974;2022-10-16T07:09:09;13.20;99.90
19385;DHT22;9828;54.122;17.974;2022-10-16T07:14:31;13.20;99.90
19385;DHT22;9828;54.122;17.974;2022-10-16T07:19:52;13.20;99.90
19385;DHT22;9828;54.122;17.974;2022-10-16T07:25:14;13.20;99.90
19385;DHT22;9828;54.122;17.974;2022-10-16T07:30:35;13.30;99.90
19385;DHT22;9828;54.122;17.974;2022-10-16T07:35:57;13.30;99.90
19385;DHT22;9828;54.122;17.974;2022-10-16T07:41:19;13.40;99.90
19385;DHT22;9828;54.122;17.974;2022-10-16T07:46:40;13.40;99.90
19385;DHT22;9828;54.122;17.974;2022-10-16T07:52:02;13.50;99.90
19385;DHT22;9828;54.122;17.974;2022-10-16T07:57:23;13.50;99.90
19385;DHT22;9828;54.122;17.974;2022-10-16T08:02:45;13.50;99.90
19385;DHT22;9828;54.122;17.974;2022-10-16T08:08:13;13.50;99.90
19385;DHT22;9828;54.122;17.974;2022-10-16T08:13:35;13.50;99.90
19385;DHT22;9828;54.122;17.974;2022-10-16T08:18:56;13.60;99.90
19385;DHT22;9828;54.122;17.974;2022-10-16T08:24:17;13.60;99.90
19385;DHT22;9828;54.122;17.974;2022-10-16T08:29:39;13.60;99.90
19385;DHT22;9828;54.122;17.974;2022-10-16T08:35:00;13.70;99.90
19385;DHT22;9828;54.122;17.974;2022-10-16T08:40:25;13.70;99.90
19385;DHT22;9828;54.122;17.974;2022-10-16T08:46:19;13.70;99.90
19385;DHT22;9828;54.122;17.974;2022-10-16T08:51:42;13.80;99.90
19385;DHT22;9828;54.122;17.974;2022-10-16T08:57:13;13.90;99.90
19385;DHT22;9828;54.122;17.974;2022-10-16T09:02:40;13.90;99.90
19385;DHT22;9828;54.122;17.974;2022-10-16T11:08:51;16.30;99.90
19385;DHT22;9828;54.122;17.974;2022-10-16T11:14:23;16.60;99.90
19385;DHT22;9828;54.122;17.974;2022-10-16T11:19:51;16.60;99.90
19385;DHT22;9828;54.122;17.974;2022-10-16T11:25:22;16.40;99.90
19385;DHT22;9828;54.122;17.974;2022-10-16T11:30:55;16.50;99.90
19385;DHT22;9828;54.122;17.974;2022-10-16T11:36:51;16.40;99.90
19385;DHT22;9828;54.122;17.974;2022-10-16T11:42:27;16.40;99.90
19385;DHT22;9828;54.122;17.974;2022-10-16T11:53:50;17.00;99.90
19385;DHT22;9828;54.122;17.974;2022-10-16T12:05:23;18.30;99.90
19385;DHT22;9828;54.122;17.974;2022-10-16T12:10:47;18.30;99.90
19385;DHT22;9828;54.122;17.974;2022-10-16T12:21:33;18.10;1.00
19385;DHT22;9828;54.122;17.974;2022-10-16T12:26:54;17.90;1.00
19385;DHT22;9828;54.122;17.974;2022-10-16T12:32:38;17.70;1.00
19385;DHT22;9828;54.122;17.974;2022-10-16T12:38:16;17.50;1.00
19385;DHT22;9828;54.122;17.974;2022-10-16T12:43:43;17.30;1.00
19385;DHT22;9828;54.122;17.974;2022-10-16T12:54:37;17.00;1.00
19385;DHT22;9828;54.122;17.974;2022-10-16T13:11:29;18.10;1.00
19385;DHT22;9828;54.122;17.974;2022-10-16T13:28:09;17.80;1.00
19385;DHT22;9828;54.122;17.974;2022-10-16T13:33:41;17.90;1.00
19385;DHT22;9828;54.122;17.974;2022-10-16T13:39:10;17.80;99.90
19385;DHT22;9828;54.122;17.974;2022-10-16T13:44:53;17.60;99.90
19385;DHT22;9828;54.122;17.974;2022-10-16T13:50:17;17.30;1.00
19385;DHT22;9828;54.122;17.974;2022-10-16T14:01:03;16.80;1.00
19385;DHT22;9828;54.122;17.974;2022-10-16T14:06:26;16.70;1.00
19385;DHT22;9828;54.122;17.974;2022-10-16T14:11:57;16.70;1.00
19385;DHT22;9828;54.122;17.974;2022-10-16T14:17:23;16.60;1.00
19385;DHT22;9828;54.122;17.974;2022-10-16T14:22:46;16.60;1.00
19385;DHT22;9828;54.122;17.974;2022-10-16T14:28:17;16.50;1.00
19385;DHT22;9828;54.122;17.974;2022-10-16T14:33:38;16.60;1.00
19385;DHT22;9828;54.122;17.974;2022-10-16T15:06:14;16.10;1.00
19385;DHT22;9828;54.122;17.974;2022-10-16T15:16:57;15.90;1.00
19385;DHT22;9828;54.122;17.974;2022-10-16T15:22:19;15.80;19.50
19385;DHT22;9828;54.122;17.974;2022-10-16T15:43:48;15.70;86.80
19385;DHT22;9828;54.122;17.974;2022-10-16T16:05:15;14.90;99.90
19385;DHT22;9828;54.122;17.974;2022-10-16T16:10:36;14.80;99.90
19385;DHT22;9828;54.122;17.974;2022-10-16T16:15:58;14.70;99.90
19385;DHT22;9828;54.122;17.974;2022-10-16T16:21:19;14.30;99.90
19385;DHT22;9828;54.122;17.974;2022-10-16T16:26:40;14.30;99.90
19385;DHT22;9828;54.122;17.974;2022-10-16T16:32:04;14.20;99.90
19385;DHT22;9828;54.122;17.974;2022-10-16T16:37:25;14.10;99.90
19385;DHT22;9828;54.122;17.974;2022-10-16T16:42:48;14.00;99.90
19385;DHT22;9828;54.122;17.974;2022-10-16T16:48:09;13.90;99.90
19385;DHT22;9828;54.122;17.974;2022-10-16T16:53:32;13.90;99.90
19385;DHT22;9828;54.122;17.974;2022-10-16T17:09:39;13.60;99.90
19385;DHT22;9828;54.122;17.974;2022-10-16T17:25:45;13.30;99.90
19385;DHT22;9828;54.122;17.974;2022-10-16T20:01:39;12.40;99.90
19385;DHT22;9828;54.122;17.974;2022-10-16T20:17:44;12.40;99.90
19385;DHT22;9828;54.122;17.974;2022-10-16T20:28:27;12.50;99.90
19385;DHT22;9828;54.122;17.974;2022-10-16T20:33:53;12.20;99.90
19385;DHT22;9828;54.122;17.974;2022-10-16T20:44:36;12.10;99.90
19385;DHT22;9828;54.122;17.974;2022-10-16T20:55:18;11.80;99.90
19385;DHT22;9828;54.122;17.974;2022-10-16T21:00:40;11.90;99.90
19385;DHT22;9828;54.122;17.974;2022-10-16T21:27:39;12.00;99.90
19385;DHT22;9828;54.122;17.974;2022-10-16T21:33:00;12.10;99.90
19385;DHT22;9828;54.122;17.974;2022-10-16T21:49:09;11.90;99.90
19385;DHT22;9828;54.122;17.974;2022-10-16T21:54:30;11.90;99.90
19385;DHT22;9828;54.122;17.974;2022-10-16T21:59:52;11.80;99.90
19385;DHT22;9828;54.122;17.974;2022-10-16T22:05:13;11.80;99.90
19385;DHT22;9828;54.122;17.974;2022-10-16T22:10:34;11.70;99.90
19385;DHT22;9828;54.122;17.974;2022-10-16T22:15:55;11.70;99.90
19385;DHT22;9828;54.122;17.974;2022-10-16T22:21:17;11.70;99.90
19385;DHT22;9828;54.122;17.974;2022-10-16T23:09:30;11.50;99.90
19385;DHT22;9828;54.122;17.974;2022-10-16T23:14:52;11.60;99.90
